createdAt,value
2023-08-24T00:00:23.383Z,22.80
2023-08-24T00:02:51.027Z,22.80
2023-08-24T00:05:17.970Z,22.80
2023-08-24T00:07:44.935Z,22.80
2023-08-24T00:10:12.195Z,22.80
2023-08-24T00:12:40.393Z,22.70
2023-08-24T00:15:10.203Z,22.70
2023-08-24T00:17:39.086Z,22.70
2023-08-24T00:20:11.652Z,22.70
2023-08-24T00:22:40.613Z,22.60
2023-08-24T00:25:08.965Z,22.60
2023-08-24T00:27:36.771Z,22.60
2023-08-24T00:30:07.798Z,22.60
2023-08-24T00:32:36.070Z,22.60
2023-08-24T00:35:04.084Z,22.60
2023-08-24T00:37:31.677Z,22.50
2023-08-24T00:40:00.415Z,22.50
2023-08-24T00:42:27.261Z,22.40
2023-08-24T00:44:54.125Z,22.30
2023-08-24T00:47:21.261Z,22.30
2023-08-24T00:49:48.772Z,22.30
2023-08-24T00:52:15.866Z,22.30
2023-08-24T00:54:43.018Z,22.30
2023-08-24T00:57:11.338Z,22.20
2023-08-24T00:59:38.666Z,22.20
2023-08-24T01:02:05.659Z,22.20
2023-08-24T01:04:32.596Z,22.20
2023-08-24T01:06:59.759Z,22.30
2023-08-24T01:09:26.837Z,22.30
2023-08-24T01:12:29.228Z,22.30
2023-08-24T01:15:08.888Z,22.40
2023-08-24T01:17:39.193Z,22.40
2023-08-24T01:20:07.364Z,22.40
2023-08-24T01:22:42.097Z,22.40
2023-08-24T01:25:14.451Z,22.40
2023-08-24T01:27:42.233Z,22.40
2023-08-24T01:30:10.082Z,22.40
2023-08-24T01:32:38.043Z,22.40
2023-08-24T01:35:09.677Z,22.40
2023-08-24T01:37:39.416Z,22.30
2023-08-24T01:40:29.026Z,22.30
2023-08-24T01:43:06.763Z,22.30
2023-08-24T01:45:34.862Z,22.30
2023-08-24T01:48:04.194Z,22.40
2023-08-24T01:50:32.308Z,22.40
2023-08-24T01:52:59.673Z,22.40
2023-08-24T01:55:27.079Z,22.40
2023-08-24T01:57:56.644Z,22.40
2023-08-24T02:00:23.777Z,22.40
2023-08-24T02:02:50.628Z,22.40
2023-08-24T02:05:18.368Z,22.30
2023-08-24T02:07:51.921Z,22.30
2023-08-24T02:10:19.148Z,22.30
2023-08-24T02:12:46.018Z,22.20
2023-08-24T02:15:13.129Z,22.10
2023-08-24T02:17:40.044Z,22.00
2023-08-24T02:20:09.895Z,22.00
2023-08-24T02:22:36.845Z,22.10
2023-08-24T02:25:05.994Z,22.10
2023-08-24T02:27:33.977Z,22.20
2023-08-24T02:30:01.567Z,22.20
2023-08-24T02:32:28.575Z,22.20
2023-08-24T02:34:55.539Z,22.00
2023-08-24T02:37:22.538Z,21.80
2023-08-24T02:39:49.636Z,21.70
2023-08-24T02:42:17.091Z,21.60
2023-08-24T02:44:44.368Z,21.50
2023-08-24T02:47:12.457Z,21.40
2023-08-24T02:49:39.875Z,21.30
2023-08-24T02:52:06.842Z,21.20
2023-08-24T02:54:34.012Z,21.20
2023-08-24T02:57:01.332Z,21.10
2023-08-24T02:59:28.281Z,21.10
2023-08-24T03:01:55.488Z,21.10
2023-08-24T03:04:23.597Z,21.00
2023-08-24T03:06:52.837Z,21.00
2023-08-24T03:09:19.949Z,21.00
2023-08-24T03:11:46.899Z,21.00
2023-08-24T03:14:13.965Z,21.00
2023-08-24T03:16:41.097Z,21.10
2023-08-24T03:19:08.452Z,21.10
2023-08-24T03:21:35.492Z,21.10
2023-08-24T03:24:05.480Z,21.20
2023-08-24T03:26:32.339Z,21.30
2023-08-24T03:28:59.201Z,21.40
2023-08-24T03:31:27.529Z,21.50
2023-08-24T03:33:55.074Z,21.50
2023-08-24T03:36:22.135Z,21.50
2023-08-24T03:38:49.177Z,21.50
2023-08-24T03:41:16.215Z,21.40
2023-08-24T03:43:43.124Z,21.40
2023-08-24T03:46:10.987Z,21.40
2023-08-24T03:48:42.001Z,21.40
2023-08-24T03:51:08.887Z,21.40
2023-08-24T03:53:37.705Z,21.40
2023-08-24T03:56:04.775Z,21.40
2023-08-24T03:58:32.620Z,21.40
2023-08-24T04:01:00.510Z,21.30
2023-08-24T04:03:27.844Z,21.30
2023-08-24T04:05:54.769Z,21.30
2023-08-24T04:08:21.859Z,21.30
2023-08-24T04:10:49.721Z,21.30
2023-08-24T04:13:16.590Z,21.30
2023-08-24T04:15:44.241Z,21.30
2023-08-24T04:18:12.247Z,21.30
2023-08-24T04:20:39.193Z,21.30
2023-08-24T04:23:07.934Z,21.40
2023-08-24T04:25:35.005Z,21.50
2023-08-24T04:28:01.868Z,21.60
2023-08-24T04:30:28.946Z,21.60
2023-08-24T04:32:55.903Z,21.60
2023-08-24T04:35:22.726Z,21.60
2023-08-24T04:37:50.289Z,21.70
2023-08-24T04:40:17.456Z,21.70
2023-08-24T04:42:44.262Z,21.70
2023-08-24T04:45:11.216Z,21.80
2023-08-24T04:47:38.078Z,21.80
2023-08-24T04:50:06.092Z,21.80
2023-08-24T04:52:33.160Z,21.80
2023-08-24T04:55:00.116Z,21.90
2023-08-24T04:57:27.134Z,21.90
2023-08-24T04:59:54.174Z,21.90
2023-08-24T05:02:21.050Z,21.90
2023-08-24T05:04:49.969Z,21.90
2023-08-24T05:07:17.194Z,22.00
2023-08-24T05:09:44.033Z,22.00
2023-08-24T05:12:10.918Z,22.00
2023-08-24T05:14:37.978Z,22.00
2023-08-24T05:17:06.075Z,22.10
2023-08-24T05:19:32.926Z,22.10
2023-08-24T05:21:59.818Z,22.10
2023-08-24T05:24:26.639Z,22.20
2023-08-24T05:26:53.517Z,22.20
2023-08-24T05:29:20.474Z,22.10
2023-08-24T05:31:47.563Z,22.00
2023-08-24T05:34:14.438Z,22.00
2023-08-24T05:36:41.514Z,21.90
2023-08-24T05:39:08.922Z,21.80
2023-08-24T05:41:37.910Z,21.70
2023-08-24T05:44:05.062Z,21.70
2023-08-24T05:46:32.024Z,21.60
2023-08-24T05:49:00.659Z,21.60
2023-08-24T05:51:27.765Z,21.60
2023-08-24T05:53:56.684Z,21.60
2023-08-24T05:56:23.755Z,21.60
2023-08-24T05:58:51.165Z,21.60
2023-08-24T06:01:18.289Z,21.60
2023-08-24T06:03:45.207Z,21.70
2023-08-24T06:06:12.466Z,21.70
2023-08-24T06:08:39.524Z,21.80
2023-08-24T06:11:06.726Z,22.00
2023-08-24T06:13:34.015Z,22.20
2023-08-24T06:16:01.208Z,22.40
2023-08-24T06:18:28.250Z,22.60
2023-08-24T06:20:55.235Z,22.80
2023-08-24T06:23:22.628Z,22.90
2023-08-24T06:25:49.897Z,22.90
2023-08-24T06:28:16.750Z,22.90
2023-08-24T06:30:48.410Z,22.90
2023-08-24T06:33:18.078Z,22.80
2023-08-24T06:35:45.017Z,22.90
2023-08-24T06:38:12.612Z,22.90
2023-08-24T06:40:40.173Z,23.00
2023-08-24T06:43:07.007Z,23.10
2023-08-24T06:45:34.076Z,23.10
2023-08-24T06:48:01.919Z,23.10
2023-08-24T06:50:28.934Z,23.20
2023-08-24T06:52:55.753Z,23.30
2023-08-24T06:55:22.928Z,23.50
2023-08-24T06:57:52.356Z,23.70
2023-08-24T07:00:22.880Z,24.00
2023-08-24T07:02:51.722Z,24.20
2023-08-24T07:05:21.814Z,24.50
2023-08-24T07:07:51.296Z,24.70
2023-08-24T07:10:19.019Z,24.80
2023-08-24T07:12:46.699Z,25.00
2023-08-24T07:15:14.134Z,25.20
2023-08-24T07:17:41.228Z,25.40
2023-08-24T07:20:12.630Z,25.60
2023-08-24T07:22:39.451Z,25.80
2023-08-24T07:25:07.093Z,26.20
2023-08-24T07:27:34.904Z,26.40
2023-08-24T07:30:07.999Z,26.60
2023-08-24T07:32:42.906Z,26.70
2023-08-24T07:35:10.030Z,26.90
2023-08-24T07:37:36.954Z,27.10
2023-08-24T07:40:05.071Z,27.30
2023-08-24T07:42:32.204Z,27.50
2023-08-24T07:44:59.498Z,27.70
2023-08-24T07:47:26.496Z,27.80
2023-08-24T07:49:53.507Z,27.80
2023-08-24T07:52:22.539Z,27.90
2023-08-24T07:54:49.482Z,28.00
2023-08-24T07:57:16.349Z,28.10
2023-08-24T07:59:43.217Z,28.10
2023-08-24T08:02:10.772Z,28.10
2023-08-24T08:04:38.001Z,28.10
2023-08-24T08:07:05.116Z,28.20
2023-08-24T08:09:32.017Z,28.20
2023-08-24T08:11:59.066Z,28.20
2023-08-24T08:14:27.432Z,28.20
2023-08-24T08:16:54.271Z,28.00
2023-08-24T08:19:22.854Z,28.00
2023-08-24T08:21:50.547Z,27.90
2023-08-24T08:24:25.042Z,27.80
2023-08-24T08:26:53.934Z,27.60
2023-08-24T08:29:20.822Z,27.50
2023-08-24T08:31:47.857Z,27.50
2023-08-24T08:34:14.970Z,27.50
2023-08-24T08:36:42.634Z,27.40
2023-08-24T08:39:09.786Z,27.40
2023-08-24T08:41:43.602Z,27.30
2023-08-24T08:44:12.853Z,27.30
2023-08-24T08:46:41.470Z,27.30
2023-08-24T08:49:10.593Z,27.20
2023-08-24T08:51:38.751Z,27.20
2023-08-24T08:54:09.198Z,27.20
2023-08-24T08:56:36.694Z,27.20
2023-08-24T08:59:05.577Z,27.20
2023-08-24T09:01:32.750Z,27.20
2023-08-24T09:04:00.292Z,27.20
2023-08-24T09:06:27.377Z,27.30
2023-08-24T09:08:54.420Z,27.30
2023-08-24T09:11:22.516Z,27.20
2023-08-24T09:13:49.420Z,27.30
2023-08-24T09:16:19.256Z,27.20
2023-08-24T09:18:48.275Z,27.20
2023-08-24T09:21:16.838Z,27.20
2023-08-24T09:23:54.222Z,27.30
2023-08-24T09:26:31.538Z,27.50
2023-08-24T09:28:58.992Z,27.70
2023-08-24T09:31:39.800Z,27.70
2023-08-24T09:34:07.737Z,27.80
2023-08-24T09:36:35.647Z,27.80
2023-08-24T09:39:08.100Z,27.90
2023-08-24T09:41:52.197Z,27.90
2023-08-24T09:44:19.786Z,27.90
2023-08-24T09:46:46.749Z,27.90
2023-08-24T09:49:13.775Z,27.80
2023-08-24T09:51:42.774Z,27.80
2023-08-24T09:54:11.087Z,27.80
2023-08-24T09:56:40.242Z,27.90
2023-08-24T09:59:19.257Z,27.90
2023-08-24T10:01:51.459Z,27.90
2023-08-24T10:04:23.917Z,27.90
2023-08-24T10:06:56.312Z,27.90
2023-08-24T10:09:54.544Z,27.90
2023-08-24T10:12:25.937Z,27.80
2023-08-24T10:14:57.366Z,27.80
2023-08-24T10:17:24.873Z,27.80
2023-08-24T10:19:53.684Z,27.80
2023-08-24T10:22:21.464Z,27.80
2023-08-24T10:24:54.868Z,27.70
2023-08-24T10:27:27.776Z,27.70
2023-08-24T10:29:54.950Z,27.70
2023-08-24T10:32:23.521Z,27.60
2023-08-24T10:34:51.045Z,27.60
2023-08-24T10:37:18.038Z,27.60
2023-08-24T10:39:47.253Z,27.60
2023-08-24T10:42:15.468Z,27.50
2023-08-24T10:44:46.928Z,27.50
2023-08-24T10:47:21.777Z,27.50
2023-08-24T10:49:58.028Z,27.50
2023-08-24T10:52:40.344Z,27.50
2023-08-24T10:55:24.476Z,27.50
2023-08-24T10:57:59.323Z,27.60
2023-08-24T11:00:30.904Z,27.60
2023-08-24T11:03:00.982Z,27.60
2023-08-24T11:05:33.686Z,27.60
2023-08-24T11:08:05.410Z,27.60
2023-08-24T11:10:42.429Z,27.50
2023-08-24T11:13:15.669Z,27.50
2023-08-24T11:15:56.083Z,27.50
2023-08-24T11:18:28.326Z,27.50
2023-08-24T11:20:57.130Z,27.50
2023-08-24T11:23:26.220Z,27.50
2023-08-24T11:25:57.490Z,27.50
2023-08-24T11:28:26.475Z,27.50
2023-08-24T11:30:53.828Z,27.50
2023-08-24T11:33:36.560Z,27.50
2023-08-24T11:36:08.385Z,27.50
2023-08-24T11:38:42.693Z,27.50
2023-08-24T11:41:20.094Z,27.50
2023-08-24T11:43:52.208Z,27.50
2023-08-24T11:46:20.008Z,27.60
2023-08-24T11:48:47.490Z,27.60
2023-08-24T11:51:16.175Z,27.60
2023-08-24T11:53:45.953Z,27.70
2023-08-24T11:56:14.168Z,27.80
2023-08-24T11:58:48.462Z,27.80
2023-08-24T12:01:16.439Z,27.90
2023-08-24T12:03:43.654Z,28.00
2023-08-24T12:06:15.737Z,28.10
2023-08-24T12:08:47.738Z,28.20
2023-08-24T12:11:15.598Z,28.30
2023-08-24T12:13:50.626Z,28.30
2023-08-24T12:16:18.971Z,28.30
2023-08-24T12:19:01.164Z,28.30
2023-08-24T12:21:29.000Z,28.30
2023-08-24T12:24:07.498Z,28.30
2023-08-24T12:26:37.930Z,28.30
2023-08-24T12:29:09.107Z,28.30
2023-08-24T12:31:37.365Z,28.30
2023-08-24T12:34:11.894Z,28.30
2023-08-24T12:36:40.358Z,28.20
2023-08-24T12:39:08.987Z,28.10
2023-08-24T12:41:36.037Z,28.10
2023-08-24T12:44:06.491Z,28.10
2023-08-24T12:46:38.411Z,28.20
2023-08-24T12:49:05.487Z,28.20
2023-08-24T12:51:32.451Z,28.40
2023-08-24T12:53:59.257Z,28.40
2023-08-24T12:56:26.219Z,28.40
2023-08-24T12:58:53.300Z,28.50
2023-08-24T13:01:20.218Z,28.70
2023-08-24T13:03:47.048Z,28.80
2023-08-24T13:06:24.335Z,28.90
2023-08-24T13:08:53.749Z,29.00
2023-08-24T13:11:20.830Z,29.20
2023-08-24T13:13:47.676Z,29.30
2023-08-24T13:16:15.034Z,29.40
2023-08-24T13:18:43.029Z,29.40
2023-08-24T13:21:09.874Z,29.40
2023-08-24T13:23:36.864Z,29.40
2023-08-24T13:26:03.694Z,29.30
2023-08-24T13:28:30.935Z,29.30
2023-08-24T13:30:58.033Z,29.20
2023-08-24T13:33:24.974Z,29.20
2023-08-24T13:35:51.790Z,29.20
2023-08-24T13:38:18.991Z,29.20
2023-08-24T13:40:47.458Z,29.20
2023-08-24T13:43:17.168Z,29.10
2023-08-24T13:45:44.279Z,29.10
2023-08-24T13:48:11.320Z,29.10
2023-08-24T13:50:38.421Z,29.00
2023-08-24T13:53:05.283Z,29.00
2023-08-24T13:55:33.345Z,29.00
2023-08-24T13:58:00.332Z,28.90
2023-08-24T14:00:27.713Z,28.80
2023-08-24T14:02:55.050Z,28.70
2023-08-24T14:05:22.586Z,28.70
2023-08-24T14:07:50.162Z,28.60
2023-08-24T14:10:17.140Z,28.50
2023-08-24T14:12:43.997Z,28.40
2023-08-24T14:15:12.316Z,28.40
2023-08-24T14:17:39.819Z,28.40
2023-08-24T14:20:07.381Z,28.40
2023-08-24T14:22:34.437Z,28.40
2023-08-24T14:25:01.817Z,28.40
2023-08-24T14:27:28.639Z,28.30
2023-08-24T14:29:55.553Z,28.30
2023-08-24T14:32:23.936Z,28.30
2023-08-24T14:34:51.049Z,28.30
2023-08-24T14:37:17.939Z,28.40
2023-08-24T14:39:44.771Z,28.40
2023-08-24T14:42:11.575Z,28.40
2023-08-24T14:44:38.566Z,28.40
2023-08-24T14:47:05.722Z,28.40
2023-08-24T14:49:33.464Z,28.30
2023-08-24T14:52:00.320Z,28.30
2023-08-24T14:54:27.119Z,28.30
2023-08-24T14:56:53.943Z,28.20
2023-08-24T14:59:20.730Z,28.20
2023-08-24T15:01:47.636Z,28.10
2023-08-24T15:04:14.669Z,28.10
2023-08-24T15:06:41.531Z,28.00
2023-08-24T15:09:08.728Z,28.10
2023-08-24T15:11:35.666Z,28.10
2023-08-24T15:14:02.524Z,28.10
2023-08-24T15:16:29.370Z,28.20
2023-08-24T15:18:56.194Z,28.20
2023-08-24T15:21:23.114Z,28.20
2023-08-24T15:23:49.955Z,28.30
2023-08-24T15:26:16.799Z,28.40
2023-08-24T15:29:08.795Z,28.40
2023-08-24T15:31:35.657Z,28.40
2023-08-24T15:34:02.617Z,28.50
2023-08-24T15:36:29.690Z,28.50
2023-08-24T15:38:56.504Z,28.50
2023-08-24T15:41:23.915Z,28.60
2023-08-24T15:43:50.926Z,28.60
2023-08-24T15:46:17.917Z,28.70
2023-08-24T15:48:44.990Z,28.70
2023-08-24T15:51:12.152Z,28.70
2023-08-24T15:53:39.159Z,28.70
2023-08-24T15:56:06.063Z,28.50
2023-08-24T15:58:32.922Z,28.40
2023-08-24T16:00:59.765Z,28.40
2023-08-24T16:03:26.756Z,28.40
2023-08-24T16:05:58.924Z,28.30
2023-08-24T16:08:25.949Z,28.20
2023-08-24T16:10:58.010Z,28.20
2023-08-24T16:13:26.230Z,28.20
2023-08-24T16:15:53.561Z,28.20
2023-08-24T16:18:27.746Z,28.20
2023-08-24T16:20:54.956Z,28.10
2023-08-24T16:23:22.211Z,28.10
2023-08-24T16:25:49.482Z,28.10
2023-08-24T16:28:16.434Z,28.00
2023-08-24T16:30:47.001Z,27.90
2023-08-24T16:33:13.833Z,27.90
2023-08-24T16:35:41.096Z,27.90
2023-08-24T16:38:08.023Z,27.80
2023-08-24T16:40:35.525Z,27.70
2023-08-24T16:43:02.400Z,27.70
2023-08-24T16:45:29.889Z,27.70
2023-08-24T16:47:56.915Z,27.70
2023-08-24T16:50:24.002Z,27.60
2023-08-24T16:52:50.890Z,27.70
2023-08-24T16:55:17.801Z,27.60
2023-08-24T16:57:45.765Z,27.60
2023-08-24T17:00:13.839Z,27.60
2023-08-24T17:02:41.637Z,27.60
2023-08-24T17:05:08.882Z,27.60
2023-08-24T17:07:39.937Z,27.60
2023-08-24T17:10:08.548Z,27.60
2023-08-24T17:12:36.223Z,27.50
2023-08-24T17:15:04.158Z,27.50
2023-08-24T17:17:31.341Z,27.50
2023-08-24T17:19:58.235Z,27.50
2023-08-24T17:22:25.235Z,27.50
2023-08-24T17:24:52.238Z,27.40
2023-08-24T17:27:19.168Z,27.40
2023-08-24T17:29:46.119Z,27.40
2023-08-24T17:32:13.001Z,27.30
2023-08-24T17:34:40.148Z,27.30
2023-08-24T17:37:07.000Z,27.30
2023-08-24T17:39:33.864Z,27.30
2023-08-24T17:42:00.666Z,27.30
2023-08-24T17:44:30.972Z,27.30
2023-08-24T17:46:57.910Z,27.30
2023-08-24T17:49:24.958Z,27.30
2023-08-24T17:51:52.027Z,27.30
2023-08-24T17:54:18.962Z,27.20
2023-08-24T17:56:45.920Z,27.10
2023-08-24T17:59:12.866Z,27.10
2023-08-24T18:01:39.816Z,27.20
2023-08-24T18:04:06.819Z,27.20
2023-08-24T18:06:33.631Z,27.20
2023-08-24T18:09:01.189Z,27.10
2023-08-24T18:11:28.218Z,27.10
2023-08-24T18:13:56.945Z,27.10
2023-08-24T18:16:24.043Z,27.10
2023-08-24T18:18:50.895Z,27.00
2023-08-24T18:21:17.806Z,27.10
2023-08-24T18:23:44.691Z,27.10
2023-08-24T18:26:11.713Z,27.10
2023-08-24T18:28:40.123Z,27.10
2023-08-24T18:31:07.173Z,27.00
2023-08-24T18:33:34.074Z,27.00
2023-08-24T18:36:00.906Z,27.00
2023-08-24T18:38:29.372Z,26.90
2023-08-24T18:40:56.726Z,26.90
2023-08-24T18:43:23.621Z,26.90
2023-08-24T18:46:03.969Z,26.80
2023-08-24T18:48:32.068Z,26.70
2023-08-24T18:50:59.129Z,26.70
2023-08-24T18:53:26.322Z,26.70
2023-08-24T18:55:55.397Z,26.60
2023-08-24T18:58:22.485Z,26.50
2023-08-24T19:00:49.432Z,26.60
2023-08-24T19:03:16.370Z,26.50
2023-08-24T19:05:44.859Z,26.60
2023-08-24T19:08:13.285Z,26.50
2023-08-24T19:10:40.240Z,26.50
2023-08-24T19:13:07.300Z,26.50
2023-08-24T19:15:34.192Z,26.40
2023-08-24T19:18:01.053Z,26.40
2023-08-24T19:20:28.007Z,26.50
2023-08-24T19:22:54.814Z,26.50
2023-08-24T19:25:21.765Z,26.50
2023-08-24T19:27:48.600Z,26.50
2023-08-24T19:30:15.498Z,26.40
2023-08-24T19:32:42.423Z,26.40
2023-08-24T19:35:10.717Z,26.50
2023-08-24T19:37:37.952Z,26.50
2023-08-24T19:40:07.196Z,26.60
2023-08-24T19:42:34.104Z,26.70
2023-08-24T19:45:02.073Z,26.60
2023-08-24T19:47:29.030Z,26.60
2023-08-24T19:49:56.905Z,26.60
2023-08-24T19:52:23.736Z,26.50
2023-08-24T19:54:51.065Z,26.40
2023-08-24T19:57:18.280Z,26.40
2023-08-24T19:59:45.058Z,26.30
2023-08-24T20:02:12.081Z,26.20
2023-08-24T20:04:40.072Z,26.20
2023-08-24T20:07:07.041Z,26.20
2023-08-24T20:09:34.849Z,26.10
2023-08-24T20:12:01.811Z,26.00
2023-08-24T20:14:28.882Z,25.90
2023-08-24T20:16:56.043Z,25.80
2023-08-24T20:19:22.876Z,25.70
2023-08-24T20:21:49.962Z,25.70
2023-08-24T20:24:16.817Z,25.60
2023-08-24T20:26:43.760Z,25.60
2023-08-24T20:29:10.644Z,25.60
2023-08-24T20:31:38.048Z,25.50
2023-08-24T20:34:05.109Z,25.50
2023-08-24T20:36:32.095Z,25.60
2023-08-24T20:38:58.912Z,25.60
2023-08-24T20:41:25.754Z,25.60
2023-08-24T20:43:52.740Z,25.70
2023-08-24T20:46:20.330Z,25.70
2023-08-24T20:48:47.369Z,25.60
2023-08-24T20:51:14.606Z,25.60
2023-08-24T20:53:41.454Z,25.60
2023-08-24T20:56:09.554Z,25.60
2023-08-24T20:58:36.516Z,25.60
2023-08-24T21:01:07.400Z,25.50
2023-08-24T21:03:34.807Z,25.40
2023-08-24T21:06:02.787Z,25.40
2023-08-24T21:08:32.738Z,25.20
2023-08-24T21:11:00.210Z,25.10
2023-08-24T21:13:27.173Z,25.10
2023-08-24T21:15:58.337Z,25.10
2023-08-24T21:18:25.307Z,25.00
2023-08-24T21:20:58.207Z,25.00
2023-08-24T21:23:25.402Z,25.00
2023-08-24T21:25:52.281Z,25.00
2023-08-24T21:28:19.185Z,25.00
2023-08-24T21:30:46.245Z,25.00
2023-08-24T21:33:13.185Z,24.90
2023-08-24T21:35:40.176Z,24.80
2023-08-24T21:38:06.992Z,24.80
2023-08-24T21:40:33.901Z,24.70
2023-08-24T21:43:03.678Z,24.70
2023-08-24T21:45:30.484Z,24.60
2023-08-24T21:47:57.702Z,24.50
2023-08-24T21:50:25.499Z,24.50
2023-08-24T21:52:52.682Z,24.50
2023-08-24T21:55:19.513Z,24.60
2023-08-24T21:57:46.345Z,24.70
2023-08-24T22:00:14.433Z,24.80
2023-08-24T22:02:41.782Z,24.80
2023-08-24T22:05:09.309Z,24.80
2023-08-24T22:07:36.884Z,24.90
2023-08-24T22:10:04.794Z,24.90
2023-08-24T22:12:31.674Z,25.00
2023-08-24T22:14:58.715Z,25.00
2023-08-24T22:17:25.852Z,25.00
2023-08-24T22:19:52.753Z,25.00
2023-08-24T22:22:21.977Z,25.00
2023-08-24T22:24:49.170Z,25.00
2023-08-24T22:27:16.135Z,25.00
2023-08-24T22:29:43.170Z,25.10
2023-08-24T22:32:12.772Z,25.10
2023-08-24T22:34:40.453Z,25.10
2023-08-24T22:37:07.331Z,25.10
2023-08-24T22:39:34.197Z,25.10
2023-08-24T22:42:01.267Z,25.10
2023-08-24T22:44:28.115Z,25.10
2023-08-24T22:46:55.013Z,25.10
2023-08-24T22:49:21.988Z,25.10
2023-08-24T22:51:48.836Z,25.10
2023-08-24T22:54:17.710Z,25.00
2023-08-24T22:56:45.128Z,25.00
2023-08-24T22:59:12.713Z,25.00
2023-08-24T23:01:39.668Z,24.90
2023-08-24T23:04:06.730Z,24.90
2023-08-24T23:06:55.663Z,24.80
2023-08-24T23:09:23.233Z,24.70
2023-08-24T23:11:51.043Z,24.70
2023-08-24T23:14:21.498Z,24.60
2023-08-24T23:16:49.288Z,24.50
2023-08-24T23:19:16.180Z,24.50
2023-08-24T23:21:43.147Z,24.50
2023-08-24T23:24:36.319Z,24.50
2023-08-24T23:26:56.920Z,24.40
2023-08-24T23:29:24.028Z,24.40
2023-08-24T23:31:50.961Z,24.30
2023-08-24T23:34:18.031Z,24.30
2023-08-24T23:36:45.487Z,24.30
2023-08-24T23:39:12.914Z,24.30
2023-08-24T23:41:39.740Z,24.30
2023-08-24T23:44:06.585Z,24.30
2023-08-24T23:46:33.492Z,24.20
2023-08-24T23:49:00.423Z,24.20
2023-08-24T23:51:27.305Z,24.30
2023-08-24T23:53:55.437Z,24.30
2023-08-24T23:56:22.513Z,24.30
2023-08-24T23:58:51.353Z,24.30
